Date,TemperatureHighF,TemperatureAvgF,TemperatureLowF,DewpointHighF,DewpointAvgF,DewpointLowF,HumidityHigh,HumidityAvg,HumidityLow,PressureMaxIn,PressureMinIn,WindSpeedMaxMPH,WindSpeedAvgMPH,GustSpeedMaxMPH,PrecipitationSumIn
2013-1-1,42,38,30,32,24,12,70,57,42,29.83,29.59,5,1,9,0.00
2013-1-2,35,30,25,12,8,3,44,37,27,29.91,29.80,4,1,6,0.00
2013-1-3,44,32,23,12,9,6,45,36,25,30.03,29.88,6,1,7,0.00
2013-1-4,48,34,25,16,10,7,48,35,21,30.06,30.00,5,1,8,0.00
2013-1-5,47,38,27,19,13,9,50,36,24,30.00,29.85,6,1,9,0.00
2013-1-6,51,40,32,27,17,8,64,40,21,30.00,29.80,7,1,10,0.00
2013-1-7,52,35,24,14,9,3,44,32,18,30.00,29.83,4,1,6,0.00
2013-1-8,56,42,28,20,14,8,44,32,22,29.85,29.77,6,1,10,0.00
2013-1-9,54,51,46,45,37,19,72,60,34,29.94,29.83,2,0,8,0.00
2013-1-10,66,60,54,58,50,-100,81,69,49,29.88,29.53,13,0,22,0.00
2013-1-11,66,60,55,45,34,25,55,39,23,29.65,29.56,9,3,15,0.00
2013-1-12,71,67,63,58,50,44,73,55,40,29.62,29.38,12,5,20,0.00
2013-1-13,69,42,32,47,27,13,71,57,36,29.88,29.38,9,3,15,0.00
2013-1-14,32,29,27,13,9,6,43,39,34,30.00,29.85,6,3,12,0.00
2013-1-15,31,28,25,20,14,8,61,49,40,29.91,29.68,5,-6,10,0.00
2013-1-16,32,31,29,20,18,15,61,54,49,29.80,29.68,4,-32,6,0.00
2013-1-17,47,36,30,21,16,12,61,44,28,30.09,29.74,7,-23,14,0.00
2013-1-18,54,38,27,16,12,6,49,34,18,30.12,29.97,5,2,8,0.00
2013-1-19,58,45,32,16,13,7,39,27,19,29.97,29.77,8,4,15,0.00
2013-1-20,60,46,36,16,12,4,37,25,17,29.85,29.77,4,1,8,0.00
2013-1-21,42,35,27,7,2,-2,30,24,21,29.97,29.80,6,2,11,0.00
2013-1-22,39,31,24,3,1,-2,33,26,21,30.00,29.94,4,1,6,0.00
2013-1-23,57,40,26,16,9,-2,37,26,20,29.97,29.80,6,1,10,0.00
2013-1-24,41,38,35,19,5,0,43,25,21,30.06,29.85,5,2,8,0.00
2013-1-25,46,39,33,25,14,3,51,37,21,29.85,29.68,7,2,12,0.00
2013-1-26,53,42,30,23,15,10,52,35,21,29.94,29.85,4,0,6,0.00
2013-1-27,64,54,45,33,23,14,38,29,24,29.91,29.74,8,3,15,0.00
2013-1-28,72,64,59,41,37,32,48,37,24,29.80,29.68,10,6,19,0.00
2013-1-29,74,68,60,54,38,32,68,36,22,29.68,29.15,18,8,26,0.80
2013-1-30,59,40,34,47,3,-100,73,32,23,29.68,29.18,11,-120,20,0.31
2013-1-31,56,40,31,15,9,-1,37,27,17,29.97,29.68,8,3,16,0.00
2013-2-1,42,30,23,5,-1,-5,25,23,21,30.15,29.91,5,2,10,0.00
2013-2-2,54,38,27,14,8,-3,37,27,20,29.91,29.77,7,2,10,0.00
2013-2-3,56,45,38,15,10,2,37,24,17,29.83,29.71,10,3,15,0.00
2013-2-4,56,46,37,24,13,5,39,27,17,29.74,29.56,9,3,13,0.04
2013-2-5,64,50,39,34,24,18,58,37,23,29.71,29.56,6,1,8,0.00
2013-2-6,60,49,38,27,21,17,55,34,22,29.80,29.68,3,1,7,0.00
2013-2-7,68,56,44,38,26,15,50,31,22,29.68,29.50,7,2,11,0.18
2013-2-8,57,45,35,43,21,12,60,38,29,29.94,29.56,7,3,14,0.10
2013-2-9,51,41,31,18,15,12,47,35,26,29.91,29.65,6,1,8,0.00
2013-2-10,61,55,48,44,31,17,58,41,26,29.65,29.38,10,5,17,0.29
2013-2-11,61,50,44,32,14,8,38,23,16,29.83,29.62,6,2,12,0.00
2013-2-12,51,48,42,22,18,15,39,30,26,29.80,29.44,3,1,6,0.01
2013-2-13,45,41,39,26,22,-100,53,45,37,29.65,29.41,5,2,10,0.05
2013-2-14,64,48,37,23,18,11,51,33,17,29.68,29.59,8,3,12,0.00
2013-2-15,54,46,38,20,11,4,36,25,18,29.85,29.65,7,2,12,0.00
2013-2-16,44,35,30,8,2,-100,31,24,20,29.88,29.80,6,2,10,0.00
2013-2-17,59,44,33,14,6,-1,23,20,17,29.85,29.68,9,4,16,0.00
2013-2-18,59,52,46,40,23,7,59,33,19,29.68,29.38,17,7,24,0.09
2013-2-19,52,42,34,21,9,1,39,26,18,29.91,29.59,8,3,14,0.08
2013-2-20,37,34,31,6,1,-2,31,24,22,29.94,29.80,4,1,6,0.00
2013-2-21,42,37,33,33,16,5,71,45,29,29.80,29.38,6,-11,8,0.83
2013-2-22,51,41,35,30,23,14,71,50,27,29.71,29.50,5,2,7,0.00
2013-2-23,53,39,31,14,11,6,43,32,18,29.71,29.56,7,1,8,0.00
2013-2-24,64,43,29,17,12,6,44,28,16,29.74,29.53,4,-3,6,0.00
2013-2-25,61,51,40,39,17,5,56,28,17,29.53,29.00,7,2,11,0.56
2013-2-26,55,45,41,39,20,13,55,37,29,29.47,29.00,10,5,18,0.02
2013-2-27,44,41,38,19,13,9,38,31,28,29.59,29.44,9,4,13,0.00
2013-2-28,43,39,35,11,9,6,34,28,23,29.74,29.59,7,3,10,0.00
2013-3-1,39,36,33,11,9,7,41,32,29,29.80,29.71,6,3,9,0.00
2013-3-2,36,33,30,15,9,4,46,36,27,29.88,29.77,7,-2,11,0.00
2013-3-3,51,36,24,12,6,2,46,28,19,29.85,29.68,6,-11,9,0.00
2013-3-4,67,53,38,25,13,4,25,20,15,29.71,29.38,14,2,22,0.00
2013-3-5,63,50,38,40,19,2,54,31,19,29.80,29.38,12,5,18,0.17
2013-3-6,52,39,34,11,4,0,31,22,19,30.00,29.80,7,3,13,0.00
2013-3-7,63,43,32,19,10,5,38,27,16,29.97,29.85,4,1,9,0.00
2013-3-8,71,48,33,20,12,7,35,23,14,29.97,29.80,5,1,6,0.00
2013-3-9,73,59,49,21,14,8,21,17,14,29.80,29.56,12,4,18,0.00
2013-3-10,66,58,50,40,31,15,63,38,16,29.56,29.38,16,6,27,0.50
2013-3-11,50,42,37,24,15,11,40,33,24,29.71,29.44,8,3,14,0.00
2013-3-12,61,43,30,19,12,6,51,29,17,29.83,29.65,7,2,10,0.00
2013-3-13,57,44,36,12,6,1,28,21,17,30.03,29.80,7,2,11,0.00
2013-3-14,65,47,31,17,10,1,34,22,15,30.03,29.80,9,2,15,0.00
2013-3-15,80,64,51,28,20,10,26,19,15,29.80,29.53,9,4,16,0.00
2013-3-16,81,67,59,30,25,19,31,21,14,29.56,29.50,9,4,17,0.00
2013-3-17,70,58,51,30,26,22,37,30,21,29.56,29.32,10,-3,17,0.00
2013-3-18,68,53,46,41,32,23,68,45,25,29.68,29.32,9,2,17,0.09
2013-3-19,60,48,35,23,15,6,51,29,17,29.85,29.65,4,1,8,0.00
2013-3-20,57,46,37,14,8,1,24,20,17,29.85,29.68,8,-2,14,0.00
2013-3-21,48,40,31,8,3,-4,30,21,19,29.74,29.56,3,1,5,0.03
2013-3-22,46,42,35,32,23,8,59,48,30,29.62,29.50,2,0,6,0.28
2013-3-23,57,50,45,37,31,27,60,49,35,29.53,29.32,3,1,6,0.17
2013-3-24,50,45,37,40,24,6,74,46,26,29.59,29.18,13,5,26,0.04
2013-3-25,40,36,33,7,3,1,29,24,21,29.88,29.59,9,5,17,0.00
2013-3-26,51,39,31,10,6,0,35,24,19,30.00,29.85,7,3,10,0.00
2013-3-27,61,44,28,16,8,-100,39,24,16,30.03,29.91,7,1,10,0.00
2013-3-28,72,53,36,20,14,6,39,22,14,29.94,29.85,7,-7,10,0.00
2013-3-29,62,54,47,36,24,11,52,34,16,29.88,29.80,10,-2,11,0.08
2013-3-30,58,54,49,46,39,-100,67,58,48,29.83,29.56,6,-4,8,0.00
2013-3-31,68,58,50,50,41,29,73,56,24,29.59,29.50,6,1,8,0.00
2013-4-1,68,56,44,34,24,16,55,32,17,29.77,29.56,5,1,8,0.00
2013-4-2,53,46,41,19,11,6,41,25,19,29.88,29.74,4,2,8,0.00
2013-4-3,50,46,41,18,10,7,40,24,19,29.85,29.74,4,2,9,0.00
2013-4-4,48,45,42,32,24,7,57,44,19,29.74,29.62,3,1,6,0.00
2013-4-5,72,54,40,33,23,14,62,35,14,29.77,29.68,5,-3,6,0.00
2013-4-6,77,61,43,26,21,15,39,23,14,29.71,29.56,13,4,22,0.00
2013-4-7,72,65,61,31,26,15,28,23,16,29.68,29.53,10,4,17,0.00
2013-4-8,80,69,61,38,31,26,36,25,17,29.62,29.53,12,5,23,0.00
2013-4-9,83,73,66,43,38,29,40,29,19,29.65,29.53,12,6,24,0.00
2013-4-10,83,76,70,47,40,34,43,28,19,29.62,29.35,12,3,20,0.00
2013-4-11,70,52,46,57,39,26,76,61,39,29.44,29.32,7,-23,9,0.00
2013-4-12,70,52,41,33,24,16,58,36,17,29.62,29.41,8,2,12,0.00
2013-4-13,77,60,45,26,21,17,37,24,15,29.71,29.53,4,-8,6,0.00
2013-4-14,73,62,52,32,28,22,38,27,22,29.56,29.41,13,-9,18,0.00
2013-4-15,84,70,57,41,35,30,47,29,16,29.56,29.44,10,-50,14,0.00
2013-4-16,86,77,70,50,43,37,44,31,19,29.74,29.56,10,-54,13,0.00
2013-4-17,85,78,71,50,43,36,44,30,19,29.74,29.53,12,-29,17,0.00
2013-4-18,78,69,46,49,39,31,66,36,21,29.53,29.32,13,-264,24,0.09
2013-4-19,59,48,44,33,16,10,60,28,17,29.74,29.50,0,-999,0,1.02
2013-4-20,71,54,39,26,20,15,43,27,15,29.85,29.74,0,-999,0,0.00
2013-4-21,71,58,46,24,20,15,37,24,15,29.94,29.80,0,-999,0,0.00
2013-4-22,78,62,46,28,23,18,38,23,15,29.83,29.65,0,-999,0,0.00
2013-4-23,76,66,58,40,33,25,41,30,22,29.68,29.56,0,-999,0,0.00
2013-4-24,66,50,44,46,25,17,54,39,22,29.88,29.53,0,-999,0,0.37
2013-4-25,73,54,38,28,20,16,46,29,15,29.97,29.88,0,-999,0,0.00
2013-4-26,66,56,49,34,26,19,47,33,17,30.00,29.83,0,-999,0,0.08
2013-4-27,70,60,53,56,44,34,70,56,45,29.83,29.50,0,-999,0,0.65
2013-4-28,64,60,54,47,38,28,61,46,27,29.62,29.56,0,-999,0,0.00
2013-4-29,82,64,49,41,32,25,56,33,15,29.65,29.53,0,-999,0,0.00
2013-4-30,85,70,55,37,31,24,43,25,13,29.62,29.53,0,-999,0,0.00
2013-5-1,80,68,60,44,38,31,46,34,21,29.71,29.59,6,-718,6,0.06
2013-5-2,71,65,62,50,45,39,62,49,32,29.77,29.65,4,-466,6,0.01
2013-5-3,63,48,40,50,38,26,77,67,51,29.65,29.53,4,-499,6,1.99
2013-5-4,60,47,38,32,26,18,65,46,22,29.62,29.53,6,-12,12,0.06
2013-5-5,63,52,47,38,30,20,63,44,21,29.56,29.47,7,-28,9,0.35
2013-5-6,63,58,53,44,37,33,63,47,34,29.59,29.47,4,-28,6,0.01
2013-5-7,77,64,53,46,35,-100,63,38,20,29.65,29.56,4,-215,4,0.00
2013-5-8,82,68,54,44,34,27,50,30,14,29.74,29.62,4,-268,5,0.00
2013-5-9,83,71,59,42,36,31,44,28,16,29.71,29.62,10,-226,13,0.01
2013-5-10,79,70,65,61,47,37,75,47,23,29.62,29.53,8,-348,9,0.23
2013-5-11,75,67,61,49,36,27,52,33,18,29.71,29.59,4,-165,5,0.00
2013-5-12,70,60,51,32,20,15,36,22,14,29.85,29.74,4,-66,6,0.00
2013-5-13,77,62,47,31,24,18,40,25,15,29.88,29.74,5,-120,8,0.00
2013-5-14,87,74,64,33,27,-100,24,18,13,29.77,29.68,8,-60,13,0.00
2013-5-15,87,76,67,30,27,23,23,16,13,29.77,29.62,6,-70,11,0.00
2013-5-16,78,72,67,43,36,24,39,27,16,29.65,29.56,6,-60,10,0.00
2013-5-17,78,70,67,56,47,39,58,43,30,29.62,29.53,9,-248,10,0.12
2013-5-18,87,75,65,60,50,46,65,43,25,29.65,29.59,6,-327,6,0.00
2013-5-19,92,81,74,52,44,37,43,29,17,29.65,29.56,8,-213,11,0.00
2013-5-20,90,81,75,50,43,38,42,28,18,29.65,29.50,9,-200,15,0.00
2013-5-21,83,72,65,59,49,35,63,46,23,29.65,29.44,7,-590,10,0.37
2013-5-22,81,71,64,53,44,33,67,42,20,29.56,29.38,5,-528,10,0.43
2013-5-23,83,73,65,44,37,31,44,29,19,29.77,29.53,0,-497,4,0.00
2013-5-24,79,67,58,34,28,22,34,24,15,29.94,29.77,3,-445,6,0.00
2013-5-25,82,67,54,35,30,25,43,26,14,29.91,29.80,0,-999,0,0.00
2013-5-26,90,73,59,40,33,25,44,25,12,29.85,29.74,0,-999,0,0.00
2013-5-27,89,76,66,44,36,31,33,24,16,29.74,29.62,0,-999,0,0.00
2013-5-28,90,80,72,44,37,30,32,22,16,29.71,29.59,0,-999,0,0.00
2013-5-29,92,80,71,41,35,31,26,20,14,29.71,29.59,0,-999,0,0.00
2013-5-30,90,79,74,48,42,37,36,28,20,29.71,29.59,0,-999,0,0.01
2013-5-31,85,77,67,56,50,46,59,39,29,29.68,29.50,0,-999,0,0.11
2013-6-1,81,73,68,56,53,41,63,51,29,29.65,29.50,0,-999,0,0.00
2013-6-2,79,71,66,57,46,35,65,42,21,29.62,29.56,0,-999,0,0.04
2013-6-3,82,70,61,46,39,34,50,34,19,29.68,29.59,0,-999,0,0.00
2013-6-4,87,73,62,43,39,33,49,31,16,29.68,29.59,0,-999,0,0.00
2013-6-5,88,77,67,51,44,40,44,33,20,29.62,29.47,0,-999,0,0.04
2013-6-6,81,75,70,55,45,38,57,35,22,29.53,29.41,0,-999,0,0.00
2013-6-7,84,74,68,45,36,27,37,26,15,29.56,29.44,0,-999,0,0.00
2013-6-8,87,73,61,43,34,28,43,26,13,29.65,29.53,0,-999,0,0.00
2013-6-9,90,74,66,56,45,34,58,36,18,29.62,29.50,0,-999,0,0.59
2013-6-10,92,80,67,56,44,35,56,31,15,29.62,29.53,0,-999,0,0.00
2013-6-11,101,85,76,49,43,38,34,24,13,29.71,29.59,0,-999,0,0.00
2013-6-12,100,86,77,52,46,40,39,25,15,29.74,29.59,0,-999,0,0.00
2013-6-13,97,84,71,50,43,35,36,24,13,29.62,29.56,0,-999,0,0.00
2013-6-14,94,77,66,50,40,28,55,30,13,29.71,29.59,0,-999,0,0.00
2013-6-15,96,77,64,50,41,34,54,31,14,29.74,29.65,0,-999,0,0.00
2013-6-16,86,77,69,55,49,44,54,38,23,29.71,29.62,0,-999,0,0.00
2013-6-17,86,75,72,62,55,40,70,50,21,29.65,29.50,0,-999,0,0.55
2013-6-18,89,75,68,61,53,39,72,51,19,29.65,29.50,0,-999,0,0.00
2013-6-19,98,76,67,58,50,35,67,44,13,29.71,29.59,0,-999,0,0.37
2013-6-20,95,78,67,60,49,36,69,41,14,29.80,29.68,0,-999,0,0.00
2013-6-21,98,81,70,57,47,38,60,34,16,29.85,29.74,0,-999,0,0.00
2013-6-22,98,81,70,54,46,38,55,32,14,29.83,29.71,0,-999,0,0.00
2013-6-23,97,81,72,49,44,39,44,29,16,29.77,29.68,0,-999,0,0.00
2013-6-24,97,82,72,60,50,41,56,36,16,29.80,29.71,0,-999,0,0.29
2013-6-25,95,83,75,57,47,37,52,30,16,29.77,29.62,0,-999,0,0.00
2013-6-26,95,85,78,50,43,39,36,24,17,29.68,29.56,0,-999,0,0.00
2013-6-27,103,86,75,52,46,39,38,26,15,29.62,29.50,0,-999,0,0.00
2013-6-28,91,79,72,63,51,43,66,41,21,29.56,29.41,0,-999,0,0.72
2013-6-29,93,78,68,55,43,34,60,33,14,29.44,29.38,0,-999,0,0.00
2013-6-30,82,72,66,47,42,34,49,35,20,29.50,29.35,0,-999,0,0.00
2013-7-1,84,72,66,52,43,33,57,37,20,29.59,29.47,0,-999,0,0.01
2013-7-2,88,73,63,49,41,34,57,34,18,29.71,29.56,0,-999,0,0.00
2013-7-3,89,72,62,50,42,33,57,36,16,29.74,29.68,0,-999,0,0.00
2013-7-4,93,76,63,52,45,38,60,36,17,29.71,29.62,0,-999,0,0.00
2013-7-5,93,75,67,56,48,38,62,41,17,29.74,29.62,0,-999,0,0.08
2013-7-6,94,75,65,60,49,39,68,43,17,29.74,29.65,0,-999,0,0.00
2013-7-7,93,80,70,58,48,39,60,36,18,29.77,29.68,0,-999,0,0.00
2013-7-8,96,81,70,60,50,41,62,37,17,29.83,29.74,0,-999,0,0.00
2013-7-9,103,86,74,59,47,37,55,29,12,29.80,29.71,0,-999,0,0.00
2013-7-10,95,86,78,49,44,40,33,24,17,29.74,29.56,0,-999,0,0.00
2013-7-11,100,83,73,57,46,36,54,30,16,29.65,29.59,0,-999,0,0.00
2013-7-12,96,77,64,45,39,32,47,28,14,29.68,29.62,0,-999,0,0.00
2013-7-13,96,76,62,46,38,29,50,28,12,29.71,29.62,0,-999,0,0.00
2013-7-14,92,76,66,52,44,37,49,33,17,29.74,29.59,0,-999,0,0.00
2013-7-15,94,80,71,59,50,40,61,38,17,29.85,29.74,0,-999,0,0.01
2013-7-16,97,82,71,59,48,38,60,34,16,29.94,29.85,0,-999,0,0.00
2013-7-17,102,83,71,58,48,38,57,33,13,29.97,29.83,0,-999,0,0.00
2013-7-18,99,78,70,59,51,-100,66,44,16,29.85,29.71,0,-999,0,1.98
2013-7-19,92,79,70,65,54,42,76,47,20,29.74,29.62,0,-999,0,0.00
2013-7-20,96,82,72,59,50,40,61,37,16,29.65,29.53,0,-999,0,0.00
2013-7-21,96,82,73,62,48,39,61,34,16,29.65,29.56,0,-999,0,0.01
2013-7-22,89,79,72,66,53,47,69,42,28,29.62,29.53,0,-999,0,0.76
2013-7-23,92,78,70,62,54,43,68,45,19,29.68,29.50,0,-999,0,0.04
2013-7-24,88,78,72,62,53,44,66,44,23,29.62,29.53,0,-999,0,0.00
2013-7-25,87,74,65,51,42,-100,58,36,16,29.74,29.62,0,-999,0,0.00
2013-7-26,66,3,65,45,-94,-100,48,2,45,29.74,29.62,0,-999,0,0.00
2013-7-27,-200,0,200,-100,-100,-100,0,0,100,29.68,29.59,0,-999,0,0.00
2013-7-28,84,25,68,38,-56,-100,33,8,18,29.71,29.59,0,-999,0,0.00
2013-7-29,83,34,66,44,-32,-100,43,17,20,29.80,29.68,0,-999,0,0.00
2013-7-30,77,10,76,58,-80,-100,54,6,46,29.77,29.68,0,-999,0,0.01
2013-7-31,94,80,74,61,54,45,62,43,20,29.71,29.62,0,-999,0,0.32
2013-8-1,92,79,73,58,49,39,57,37,18,29.74,29.62,0,-999,0,0.00
2013-8-2,94,79,69,53,45,39,49,31,17,29.71,29.62,0,-999,0,0.16
2013-8-3,80,78,75,54,49,44,47,36,31,29.74,29.59,0,-999,0,0.00
2013-8-4,90,50,71,58,-2,-100,56,27,22,29.80,29.68,0,-999,0,0.02
2013-8-5,79,66,73,64,37,-100,63,44,34,29.71,29.56,0,-999,0,0.08
2013-8-6,85,80,75,64,56,50,63,46,30,29.65,29.53,0,-999,0,0.00
2013-8-7,95,83,77,58,50,41,46,34,17,29.65,29.53,0,-999,0,0.00
2013-8-8,95,84,78,60,52,-100,51,34,17,29.62,29.53,0,-999,0,0.00
2013-8-9,101,85,77,58,50,43,47,31,16,29.71,29.59,0,-999,0,0.00
2013-8-10,92,81,78,54,50,43,41,33,21,29.83,29.68,0,-999,0,0.00
2013-8-11,92,78,74,65,54,-100,63,45,26,29.80,29.71,0,-999,0,0.00
2013-8-12,92,82,76,59,52,40,52,37,21,29.74,29.62,0,-999,0,0.00
2013-8-13,85,77,73,58,50,-100,55,40,27,29.68,29.59,0,-999,0,0.00
2013-8-14,88,74,68,44,34,-100,34,25,15,29.74,29.62,0,-999,0,0.00
2013-8-15,88,70,59,40,34,30,40,28,16,29.74,29.65,0,-999,0,0.00
2013-8-16,81,69,63,45,40,36,43,35,23,29.71,29.62,0,-999,0,0.00
2013-8-18,88,77,60,58,46,39,98,34,20,29.92,29.71,10,-992,18,0.00
2013-8-19,96,76,67,53,45,38,52,34,16,29.77,29.68,0,-999,0,0.00
2013-8-20,98,78,69,53,46,40,50,33,16,29.77,29.68,0,-999,0,0.00
2013-8-21,102,81,72,53,47,38,46,32,13,29.80,29.71,0,-999,0,0.00
2013-8-22,101,82,74,56,49,41,50,33,15,29.80,29.68,0,-999,0,0.20
2013-8-23,94,81,73,54,48,40,46,33,17,29.77,29.65,0,-999,0,0.00
2013-8-24,96,82,73,54,48,40,47,32,16,29.83,29.71,0,-999,0,0.00
2013-8-25,86,79,74,54,51,44,49,38,22,29.91,29.80,0,-999,0,0.00
2013-8-26,94,80,71,57,48,39,58,35,16,29.91,29.80,0,-999,0,0.00
2013-8-27,93,80,69,49,43,38,46,29,16,29.83,29.71,0,-999,0,0.00
2013-8-28,93,80,69,50,44,39,48,31,16,29.77,29.68,0,-999,0,0.00
2013-8-29,96,81,71,51,46,40,47,31,16,29.77,29.65,0,-999,0,0.00
2013-8-30,98,83,73,55,47,39,49,30,14,29.71,29.56,0,-999,0,0.00
2013-8-31,98,85,75,51,46,40,42,28,16,29.62,29.50,0,-999,0,0.00
2013-9-1,97,83,77,49,44,39,37,26,16,29.62,29.50,0,-999,0,0.00
2013-9-2,90,79,74,58,51,-100,52,39,20,29.65,29.50,0,-999,0,0.00
2013-9-3,91,77,69,57,45,32,58,36,16,29.71,29.56,0,-999,0,0.00
2013-9-4,89,74,64,50,41,35,53,33,18,29.80,29.65,0,-999,0,0.00
2013-9-5,91,75,64,50,42,36,51,32,17,29.83,29.74,0,-999,0,0.00
2013-9-6,91,77,67,50,43,38,49,32,17,29.80,29.68,0,-999,0,0.00
2013-9-7,94,78,67,53,44,35,55,31,15,29.74,29.65,0,-999,0,0.00
2013-9-8,96,81,69,54,46,40,52,31,16,29.68,29.59,0,-999,0,0.00
2013-9-9,91,82,74,50,46,40,42,30,18,29.71,29.59,0,-999,0,0.00
2013-9-10,96,81,73,56,47,38,51,32,16,29.80,29.68,0,-999,0,0.00
2013-9-11,94,67,73,52,22,-100,48,27,17,29.83,29.74,0,-999,0,0.00
2013-9-12,92,80,72,56,47,40,52,34,17,29.74,29.62,0,-999,0,0.00
2013-9-13,85,74,64,52,37,25,45,28,15,29.68,29.62,0,-999,0,0.00
2013-9-14,78,66,57,35,30,23,41,27,15,29.74,29.62,0,-999,0,0.00
2013-9-15,83,67,54,41,32,27,50,29,14,29.74,29.65,0,-999,0,0.00
2013-9-16,87,72,59,45,37,32,50,30,16,29.80,29.71,0,-999,0,0.00
2013-9-17,88,76,66,48,41,35,47,31,16,29.83,29.71,0,-999,0,0.00
2013-9-18,89,78,70,50,44,39,44,32,19,29.77,29.68,0,-999,0,0.00
2013-9-19,90,80,71,48,42,37,43,27,18,29.77,29.62,0,-999,0,0.00
2013-9-20,78,74,70,59,50,36,66,46,22,29.65,29.47,0,-999,0,1.75
2013-9-21,76,68,61,58,41,27,67,40,18,29.56,29.44,0,-999,0,0.00
2013-9-22,76,65,56,40,34,27,49,33,18,29.59,29.50,0,-999,0,0.00
2013-9-23,79,66,55,40,35,32,49,34,18,29.59,29.53,0,-999,0,0.00
2013-9-24,76,70,63,61,51,39,68,52,39,29.56,29.44,0,-999,0,0.53
2013-9-25,80,74,69,62,50,36,69,47,21,29.50,29.44,0,-999,0,0.00
2013-9-26,83,73,65,56,45,36,62,39,20,29.65,29.47,0,-999,0,0.00
2013-9-27,83,72,64,54,43,36,61,37,20,29.74,29.62,0,-999,0,0.00
2013-9-28,82,72,64,44,38,32,48,32,17,29.77,29.68,0,-999,0,0.00
2013-9-29,71,68,66,52,42,31,59,39,23,29.71,29.59,0,-999,0,0.00
2013-9-30,74,69,66,58,52,47,69,55,40,29.62,29.56,0,-999,0,0.00
2013-10-1,81,74,68,52,49,42,54,42,26,29.71,29.59,0,-999,0,0.00
2013-10-2,83,74,70,57,47,37,59,39,20,29.77,29.68,0,-999,0,0.00
2013-10-3,83,75,67,52,45,39,54,36,21,29.71,29.62,0,-999,0,0.00
2013-10-4,82,76,71,55,49,42,54,39,25,29.71,29.62,0,-999,0,0.00
2013-10-5,84,78,73,54,47,38,48,35,21,29.68,29.56,0,-999,0,0.00
2013-10-6,73,63,56,45,34,24,48,35,22,29.65,29.53,0,-999,0,0.00
2013-10-7,67,58,50,44,34,26,58,42,23,29.74,29.56,0,-999,0,0.55
2013-10-8,70,58,49,46,39,28,66,49,25,29.77,29.68,0,-999,0,0.00
2013-10-9,76,64,54,47,38,33,58,39,24,29.77,29.68,0,-999,0,0.00
2013-10-10,76,66,59,55,41,32,69,41,21,29.80,29.65,0,-999,0,0.00
2013-10-11,78,67,58,51,39,33,63,38,20,29.68,29.59,0,-999,0,0.00
2013-10-12,71,66,60,55,47,39,62,52,41,29.77,29.62,0,-999,0,0.00
2013-10-13,76,68,61,57,45,35,73,48,24,29.91,29.77,0,-999,0,0.00
2013-10-14,77,66,56,46,38,34,47,37,22,29.85,29.71,0,-999,0,0.00
2013-10-15,71,68,67,56,47,40,66,48,36,29.71,29.59,0,-999,0,0.00
2013-10-16,67,61,57,56,44,35,68,55,39,29.68,29.59,0,-999,0,0.00
2013-10-17,64,58,52,45,37,26,62,47,24,29.65,29.59,0,-999,0,0.00
2013-10-18,66,57,47,44,32,26,68,41,22,29.68,29.56,0,-999,0,0.00
2013-10-19,59,54,45,40,30,20,55,41,26,29.71,29.53,0,-999,0,0.00
2013-10-20,62,50,40,33,24,21,57,38,21,29.71,29.59,0,-999,0,0.00
2013-10-21,68,55,44,36,28,24,57,37,22,29.68,29.59,0,-999,0,0.00
2013-10-22,62,56,52,39,28,20,55,35,21,29.68,29.53,0,-999,0,0.00
2013-10-23,56,51,45,27,19,15,40,29,22,29.77,29.56,0,-999,0,0.00
2013-10-24,59,50,42,32,23,15,54,37,22,29.97,29.71,0,-999,0,0.00
2013-10-25,50,43,36,19,14,10,42,32,21,30.09,29.94,0,-999,0,0.00
2013-10-26,62,50,36,25,20,16,48,31,21,29.94,29.71,0,-999,0,0.00
2013-10-27,64,58,54,39,34,25,48,41,29,29.74,29.62,0,-999,0,0.00
2013-10-28,67,60,55,42,38,34,58,45,33,29.85,29.68,0,-999,0,0.00
2013-10-29,72,62,52,51,41,33,67,46,32,29.85,29.74,0,-999,0,0.00
2013-10-30,73,69,64,46,42,39,50,37,29,29.80,29.62,0,-999,0,0.00
2013-10-31,70,67,62,57,48,27,70,52,24,29.59,29.23,0,-999,0,0.00
2013-11-1,68,59,53,37,30,23,49,34,19,29.53,29.41,0,-999,0,0.00
2013-11-2,58,52,45,33,25,17,47,36,22,29.80,29.50,0,-999,0,0.00
2013-11-3,57,47,38,34,21,17,62,36,22,29.88,29.77,0,-999,0,0.00
2013-11-4,63,53,44,29,24,20,45,33,21,29.88,29.77,0,-999,0,0.00
2013-11-5,69,61,53,29,26,22,39,26,22,29.88,29.77,0,-999,0,0.00
2013-11-6,61,58,46,48,32,22,62,40,25,29.85,29.65,0,-999,0,0.00
2013-11-7,53,46,40,23,18,13,45,33,21,30.00,29.85,0,-999,0,0.00
2013-11-8,59,46,35,29,18,13,61,33,19,29.97,29.80,0,-999,0,0.00
2013-11-9,59,50,42,26,21,16,40,31,22,29.88,29.80,0,-999,0,0.00
2013-11-10,64,53,45,29,22,15,47,31,18,29.94,29.85,0,-999,0,0.00
2013-11-11,66,52,39,26,18,-100,47,29,18,29.91,29.77,0,-999,0,0.00
2013-11-12,53,40,32,30,9,-100,44,28,20,30.27,29.83,0,-999,0,0.00
2013-11-13,45,34,27,7,2,-100,33,27,20,30.30,30.06,0,-999,0,0.00
2013-11-14,56,40,26,12,4,-100,43,25,17,30.06,29.80,0,-999,0,0.00
2013-11-15,58,49,45,40,19,-100,60,35,19,29.80,29.68,0,-999,0,0.00
2013-11-16,68,60,52,52,41,-100,72,52,45,29.68,29.50,0,-999,0,0.00
2013-11-17,76,68,60,58,42,-100,71,44,17,29.65,29.38,0,-999,0,0.00
2013-11-18,62,53,44,20,12,-100,28,20,16,29.88,29.65,0,-999,0,0.00
2013-11-19,53,45,37,13,8,-100,29,22,18,29.91,29.80,0,-999,0,0.00
2013-11-20,62,46,34,19,12,-100,40,26,17,29.80,29.68,0,-999,0,0.00
2013-11-21,66,57,52,47,28,-100,63,36,24,29.80,29.71,0,-999,0,0.00
2013-11-22,60,52,44,51,34,-100,74,53,37,30.03,29.74,0,-999,0,0.00
2013-11-23,45,40,30,24,10,-100,50,32,20,30.21,29.97,0,-999,0,0.00
2013-11-24,35,30,24,0,-4,-100,24,23,22,30.24,30.06,0,-999,0,0.00
2013-11-25,36,34,32,22,7,-100,59,35,22,30.06,29.80,0,-999,0,0.00
2013-11-26,40,36,34,27,17,-100,68,50,27,29.80,29.59,0,-999,0,0.00
2013-11-27,34,28,23,6,-3,-100,34,25,23,30.03,29.77,0,-999,0,0.00
2013-11-28,43,30,21,5,-2,-100,41,28,20,30.12,30.00,0,-999,0,0.00
2013-11-29,53,37,26,14,6,-100,48,30,18,30.18,30.03,0,-999,0,0.00
2013-11-30,55,42,28,17,7,-100,50,26,17,30.03,29.83,0,-999,0,0.00
2013-12-1,59,52,47,21,12,-100,26,21,19,29.85,29.56,0,-999,0,0.00
2013-12-2,60,54,48,32,25,-100,47,32,26,29.56,29.35,0,-999,0,0.00
2013-12-3,59,53,47,49,36,-100,70,56,45,29.38,29.32,0,-999,0,0.00
2013-12-4,74,66,58,52,40,-100,75,41,23,29.47,29.32,0,-999,0,0.00
2013-12-5,70,48,34,46,24,-100,57,40,28,29.83,29.47,0,-999,0,0.00
2013-12-6,34,30,24,20,14,-100,58,53,46,30.09,29.71,0,-999,0,0.00
2013-12-7,28,24,22,13,3,-100,54,44,42,30.15,29.97,0,-999,0,0.00
2013-12-8,33,31,27,22,17,-100,64,59,54,29.97,29.68,0,-999,0,0.00
2013-12-9,33,31,31,20,12,-100,60,48,41,29.91,29.80,0,-999,0,0.00
2013-12-10,37,30,25,11,4,-100,45,36,30,30.06,29.85,0,-999,0,0.00
2013-12-11,43,31,22,20,6,-100,58,39,25,30.21,30.00,0,-999,0,0.00
2013-12-12,41,29,22,5,-1,-100,41,29,21,30.24,30.00,0,-999,0,0.00
2013-12-13,47,35,24,23,6,-100,53,33,19,30.00,29.56,0,-999,0,0.00
2013-12-14,43,39,36,32,20,-100,67,50,35,29.80,29.41,0,-999,0,0.00
2013-12-15,38,34,33,16,8,-100,47,35,30,29.88,29.80,0,-999,0,0.00
2013-12-16,57,45,33,18,14,-100,50,31,20,29.83,29.71,0,-999,0,0.00
2013-12-17,57,46,35,19,10,-100,35,25,19,29.91,29.77,0,-999,0,0.00
2013-12-18,58,44,30,15,10,-100,44,27,17,29.97,29.74,0,-999,0,0.00
2013-12-19,61,54,49,31,18,-100,32,27,23,29.77,29.56,0,-999,0,0.00
2013-12-20,69,65,61,55,40,31,67,41,31,29.59,29.44,0,-999,0,0.00
2013-12-21,73,66,53,52,40,-100,58,41,31,29.44,29.12,0,-999,0,0.00
2013-12-22,55,48,38,42,26,-100,65,46,30,29.88,29.35,0,-999,0,0.00
2013-12-23,38,33,28,10,3,-100,42,30,24,30.12,29.88,0,-999,0,0.00
2013-12-24,35,28,25,10,-3,-100,47,29,22,30.21,30.03,0,-999,0,0.00
2013-12-25,47,33,22,10,2,-100,41,28,19,30.03,29.91,0,-999,0,0.00
2013-12-26,47,35,29,15,5,-100,47,32,19,30.03,29.94,0,-999,0,0.00
2013-12-27,53,37,26,15,6,-100,47,30,18,30.06,29.97,0,-999,0,0.00
2013-12-28,46,38,32,25,12,-100,50,37,27,29.97,29.62,0,-999,0,0.00
2013-12-29,52,42,35,30,17,-100,60,40,28,29.85,29.59,0,-999,0,0.00
2013-12-30,35,31,28,8,2,-100,33,30,30,30.00,29.83,0,-999,0,0.00
2013-12-31,46,33,23,12,4,-100,47,32,22,30.03,29.94,0,-999,0,0.00
2014-1-1,53,41,26,22,11,-100,49,32,21,29.97,29.56,0,-999,0,0.00
2014-1-2,50,34,23,30,4,-100,51,31,23,30.06,29.53,0,-999,0,0.00